Time;durP1;ratioP1;P1;durP2;ratioP2;P2;SDS_P1;SDS_P2;PMS_P1;PMS_P2;Temp;Humidity;BMP_temperature;BMP_pressure;BME280_temperature;BME280_humidity;BME280_pressure;Samples;Min_cycle;Max_cycle;Signal;HPM_P1;HPM_P2
2022/04/11 00:00:09;;;;;;;2.38;1.35;;;;;;;;;;5071196;28;20052;-69
2022/04/11 00:03:14;;;;;;;2.33;1.30;;;;;;;;;;5073087;28;20048;-69
2022/04/11 00:06:18;;;;;;;2.05;1.35;;;;;;;;;;5072127;28;20036;-68
2022/04/11 00:09:22;;;;;;;2.13;1.30;;;;;;;;;;5072011;28;20052;-69
2022/04/11 00:12:29;;;;;;;3.47;1.80;;;;;;;;;;5072017;28;20040;-69
2022/04/11 00:15:34;;;;;;;6.32;1.50;;;;;;;;;;5071329;28;20040;-69
2022/04/11 00:18:39;;;;;;;3.92;2.33;;;;;;;;;;5071116;28;20044;-69
2022/04/11 00:21:43;;;;;;;8.18;2.88;;;;;;;;;;5072051;28;20406;-69
2022/04/11 00:24:49;;;;;;;6.95;3.00;;;;;;;;;;5071746;28;20044;-69
2022/04/11 00:27:54;;;;;;;6.20;3.50;;;;;;;;;;5070866;28;20048;-69
2022/04/11 00:30:58;;;;;;;7.38;3.65;;;;;;;;;;5071889;28;20040;-69
2022/04/11 00:34:02;;;;;;;9.02;4.57;;;;;;;;;;5071925;28;20103;-69
2022/04/11 00:37:06;;;;;;;9.27;4.47;;;;;;;;;;5059668;28;20044;-69
2022/04/11 00:40:11;;;;;;;9.35;4.95;;;;;;;;;;5070940;28;20036;-69
2022/04/11 00:43:33;;;;;;;11.38;4.13;;;;;;;;;;5070641;28;20500;-69
2022/04/11 00:46:37;;;;;;;8.68;4.70;;;;;;;;;;5059576;28;20619;-69
2022/04/11 00:49:42;;;;;;;8.93;4.97;;;;;;;;;;5070798;28;20036;-69
2022/04/11 00:52:48;;;;;;;9.98;4.50;;;;;;;;;;5070610;28;20223;-69
2022/04/11 00:55:53;;;;;;;11.27;5.07;;;;;;;;;;5070996;28;20036;-69
2022/04/11 00:58:59;;;;;;;6.85;4.40;;;;;;;;;;5071340;28;20039;-69
2022/04/11 01:02:05;;;;;;;10.30;4.82;;;;;;;;;;5071178;28;20370;-68
2022/04/11 01:05:09;;;;;;;6.55;4.32;;;;;;;;;;5070742;28;20400;-69
2022/04/11 01:08:14;;;;;;;9.13;4.65;;;;;;;;;;5071116;28;20048;-69
2022/04/11 01:11:20;;;;;;;11.48;5.38;;;;;;;;;;5070378;28;20476;-68
2022/04/11 01:14:24;;;;;;;8.65;4.47;;;;;;;;;;5069912;28;20037;-69
2022/04/11 01:17:33;;;;;;;8.50;4.53;;;;;;;;;;5070629;28;20037;-68
2022/04/11 01:20:37;;;;;;;7.30;4.13;;;;;;;;;;5070425;28;20044;-69
2022/04/11 01:23:41;;;;;;;11.27;4.60;;;;;;;;;;5058729;28;20049;-69
2022/04/11 01:26:47;;;;;;;7.35;4.22;;;;;;;;;;5070958;28;20099;-69
2022/04/11 01:29:51;;;;;;;9.45;4.80;;;;;;;;;;5070328;28;20044;-68
2022/04/11 01:32:56;;;;;;;9.05;4.53;;;;;;;;;;5070362;28;20484;-69
2022/04/11 01:36:01;;;;;;;8.02;4.63;;;;;;;;;;5071344;28;20036;-69
2022/04/11 01:39:05;;;;;;;8.57;4.25;;;;;;;;;;5070241;28;20033;-69
2022/04/11 01:42:10;;;;;;;7.47;4.00;;;;;;;;;;5071093;28;20033;-68
2022/04/11 01:45:16;;;;;;;6.68;4.30;;;;;;;;;;5070197;28;20040;-69
2022/04/11 01:48:21;;;;;;;6.72;4.18;;;;;;;;;;5058223;28;20036;-69
2022/04/11 01:51:25;;;;;;;8.45;4.07;;;;;;;;;;5070829;28;20032;-69
2022/04/11 01:54:29;;;;;;;7.32;4.00;;;;;;;;;;5069909;28;20036;-69
2022/04/11 01:57:34;;;;;;;7.15;4.03;;;;;;;;;;5069842;28;20037;-69
2022/04/11 02:00:38;;;;;;;9.55;4.22;;;;;;;;;;5070165;28;20028;-69
2022/04/11 02:03:44;;;;;;;5.82;4.38;;;;;;;;;;5069709;28;20048;-69
2022/04/11 02:06:48;;;;;;;6.75;3.72;;;;;;;;;;5069743;28;20036;-69
2022/04/11 02:09:53;;;;;;;5.70;3.67;;;;;;;;;;5070014;28;20576;-69
2022/04/11 02:12:58;;;;;;;8.35;3.85;;;;;;;;;;5058413;28;20037;-69
2022/04/11 02:16:03;;;;;;;5.45;3.90;;;;;;;;;;5070699;28;20044;-69
2022/04/11 02:19:07;;;;;;;7.32;3.83;;;;;;;;;;5070105;28;20040;-69
2022/04/11 02:22:11;;;;;;;5.88;3.72;;;;;;;;;;5058108;28;20033;-69
2022/04/11 02:25:16;;;;;;;8.88;3.60;;;;;;;;;;5069326;28;20040;-69
2022/04/11 02:28:21;;;;;;;6.28;3.33;;;;;;;;;;5071111;28;20036;-69
2022/04/11 02:31:26;;;;;;;4.38;3.17;;;;;;;;;;5073068;28;20044;-69
2022/04/11 02:34:31;;;;;;;13.52;4.47;;;;;;;;;;5072904;28;20033;-69
2022/04/11 02:37:35;;;;;;;7.13;3.60;;;;;;;;;;5073328;28;20107;-69
2022/04/11 02:40:40;;;;;;;9.38;3.60;;;;;;;;;;5072782;28;20032;-69
2022/04/11 02:43:52;;;;;;;7.22;4.03;;;;;;;;;;5050192;28;20381;-69
2022/04/11 02:46:59;;;;;;;8.07;4.15;;;;;;;;;;5072587;28;20036;-69
2022/04/11 02:50:03;;;;;;;12.07;4.35;;;;;;;;;;5071895;28;20044;-69
2022/04/11 02:53:43;;;;;;;6.38;4.20;;;;;;;;;;5072846;28;20036;-69
2022/04/11 02:56:47;;;;;;;6.50;4.25;;;;;;;;;;5072464;28;20032;-69
2022/04/11 02:59:52;;;;;;;8.52;4.55;;;;;;;;;;5072645;28;20037;-69
2022/04/11 03:02:57;;;;;;;10.73;4.30;;;;;;;;;;5071748;28;20484;-69
2022/04/11 03:06:04;;;;;;;9.68;4.25;;;;;;;;;;5071458;28;20037;-69
2022/04/11 03:09:09;;;;;;;9.60;5.57;;;;;;;;;;5071823;28;20052;-69
2022/04/11 03:12:15;;;;;;;8.45;4.10;;;;;;;;;;5071114;28;20036;-69
2022/04/11 03:15:19;;;;;;;6.05;4.03;;;;;;;;;;5071877;28;20040;-69
2022/04/11 03:18:24;;;;;;;9.68;3.72;;;;;;;;;;5071935;28;20342;-69
2022/04/11 03:21:29;;;;;;;9.82;4.00;;;;;;;;;;5072180;28;20045;-69
2022/04/11 03:24:43;;;;;;;7.22;3.83;;;;;;;;;;5071832;28;20045;-69
2022/04/11 03:27:49;;;;;;;7.45;3.70;;;;;;;;;;5071881;28;20164;-69
2022/04/11 03:30:55;;;;;;;10.23;3.83;;;;;;;;;;5072307;28;20036;-69
2022/04/11 03:33:59;;;;;;;10.02;4.82;;;;;;;;;;5071929;28;20044;-69
2022/04/11 03:37:05;;;;;;;7.68;3.45;;;;;;;;;;5072078;28;20040;-69
2022/04/11 03:40:16;;;;;;;6.28;3.63;;;;;;;;;;5060876;28;20028;-69
2022/04/11 03:43:20;;;;;;;5.68;4.05;;;;;;;;;;5071860;28;20492;-69
2022/04/11 03:46:27;;;;;;;7.90;3.63;;;;;;;;;;5072039;28;20366;-70
2022/04/11 03:49:34;;;;;;;8.55;3.80;;;;;;;;;;5071739;28;20033;-69
2022/04/11 03:52:48;;;;;;;5.68;3.58;;;;;;;;;;5071486;28;20029;-69
2022/04/11 03:55:52;;;;;;;4.63;3.50;;;;;;;;;;5071191;28;20076;-69
2022/04/11 03:58:57;;;;;;;5.30;3.25;;;;;;;;;;5071172;28;20033;-69
2022/04/11 04:02:01;;;;;;;8.32;3.05;;;;;;;;;;5071671;28;20044;-70
2022/04/11 04:05:08;;;;;;;7.85;3.00;;;;;;;;;;5071049;28;20489;-68
2022/04/11 04:08:14;;;;;;;4.85;2.92;;;;;;;;;;5071005;28;20045;-68
2022/04/11 04:11:28;;;;;;;4.32;2.58;;;;;;;;;;5071477;28;20032;-68
2022/04/11 04:15:01;;;;;;;6.60;3.00;;;;;;;;;;5072039;28;20044;-69
2022/04/11 04:18:07;;;;;;;9.55;3.22;;;;;;;;;;5071130;28;20037;-68
2022/04/11 04:21:12;;;;;;;5.47;2.47;;;;;;;;;;5070956;28;20040;-68
2022/04/11 04:24:22;;;;;;;7.03;3.28;;;;;;;;;;5071095;28;20045;-69
2022/04/11 04:27:27;;;;;;;4.70;2.85;;;;;;;;;;5070969;28;20032;-69
2022/04/11 04:30:32;;;;;;;5.40;2.45;;;;;;;;;;5070752;28;20033;-69
2022/04/11 04:33:37;;;;;;;4.45;2.17;;;;;;;;;;5070992;28;20036;-69
2022/04/11 04:36:42;;;;;;;6.18;2.22;;;;;;;;;;5071666;28;20476;-69
2022/04/11 04:39:47;;;;;;;6.95;2.30;;;;;;;;;;5060057;28;20040;-68
2022/04/11 04:42:51;;;;;;;6.25;3.00;;;;;;;;;;5071081;28;20036;-68
2022/04/11 04:45:57;;;;;;;8.15;2.95;;;;;;;;;;5070702;28;20033;-69
2022/04/11 04:49:16;;;;;;;6.68;2.80;;;;;;;;;;5071106;28;20032;-68
2022/04/11 04:52:20;;;;;;;7.95;2.70;;;;;;;;;;5070328;28;20036;-68
2022/04/11 04:55:32;;;;;;;5.90;2.67;;;;;;;;;;5070210;28;20484;-68
2022/04/11 04:58:37;;;;;;;15.25;4.10;;;;;;;;;;5070527;28;20032;-69
2022/04/11 05:01:42;;;;;;;6.82;3.92;;;;;;;;;;5059206;28;20040;-69
2022/04/11 05:04:49;;;;;;;4.50;3.17;;;;;;;;;;5069942;28;20048;-68
2022/04/11 05:07:53;;;;;;;10.32;3.55;;;;;;;;;;5069843;28;20044;-68
2022/04/11 05:11:01;;;;;;;12.07;3.45;;;;;;;;;;5070461;28;20037;-69
2022/04/11 05:14:07;;;;;;;16.23;5.20;;;;;;;;;;5070927;28;20044;-69
2022/04/11 05:17:13;;;;;;;6.70;3.53;;;;;;;;;;5058765;28;20059;-69
2022/04/11 05:20:19;;;;;;;6.93;3.40;;;;;;;;;;5070502;28;20032;-68
2022/04/11 05:23:24;;;;;;;8.88;3.67;;;;;;;;;;5070061;28;20044;-69
2022/04/11 05:26:28;;;;;;;12.82;3.92;;;;;;;;;;5058750;28;20040;-68
2022/04/11 05:29:33;;;;;;;7.60;3.50;;;;;;;;;;5070471;28;20040;-69
2022/04/11 05:32:37;;;;;;;7.00;3.38;;;;;;;;;;5070354;28;20025;-69
2022/04/11 05:35:42;;;;;;;14.77;7.32;;;;;;;;;;5070021;28;20044;-69
2022/04/11 05:38:51;;;;;;;11.77;6.10;;;;;;;;;;5070181;28;20107;-69
2022/04/11 05:41:55;;;;;;;14.70;8.00;;;;;;;;;;5047233;28;20057;-70
2022/04/11 05:44:59;;;;;;;14.85;8.63;;;;;;;;;;5069396;28;20041;-69
2022/04/11 05:48:04;;;;;;;14.27;8.13;;;;;;;;;;5070587;28;20029;-69
2022/04/11 05:51:08;;;;;;;18.77;10.82;;;;;;;;;;5076679;28;20385;-78
2022/04/11 05:54:13;;;;;;;27.92;16.20;;;;;;;;;;5075662;28;20499;-79
2022/04/11 05:57:17;;;;;;;28.23;16.27;;;;;;;;;;5076585;28;20039;-79
2022/04/11 06:00:22;;;;;;;28.77;15.95;;;;;;;;;;5071645;28;20075;-76
2022/04/11 06:03:28;;;;;;;27.80;15.48;;;;;;;;;;5076972;28;20055;-79
2022/04/11 06:06:33;;;;;;;25.73;13.65;;;;;;;;;;5074668;28;20047;-77
2022/04/11 06:09:39;;;;;;;34.90;15.02;;;;;;;;;;5076965;28;20043;-76
2022/04/11 06:12:44;;;;;;;24.73;13.60;;;;;;;;;;5075449;28;20047;-77
2022/04/11 06:15:48;;;;;;;28.27;13.30;;;;;;;;;;5075081;28;20055;-77
2022/04/11 06:18:53;;;;;;;22.38;10.60;;;;;;;;;;5074473;28;20531;-76
2022/04/11 06:21:58;;;;;;;24.25;9.77;;;;;;;;;;5074370;28;20047;-76
2022/04/11 06:25:05;;;;;;;14.07;8.13;;;;;;;;;;5074587;28;20516;-78
2022/04/11 06:28:09;;;;;;;20.73;9.27;;;;;;;;;;5075204;28;20040;-79
2022/04/11 06:31:14;;;;;;;17.90;8.00;;;;;;;;;;5075001;28;20047;-75
2022/04/11 06:34:21;;;;;;;17.35;7.03;;;;;;;;;;5062798;28;20039;-76
2022/04/11 06:37:25;;;;;;;14.18;6.28;;;;;;;;;;5074729;28;20047;-77
2022/04/11 06:40:31;;;;;;;11.85;5.68;;;;;;;;;;5064768;28;20041;-76
2022/04/11 06:43:35;;;;;;;9.18;4.90;;;;;;;;;;5074803;28;20081;-78
2022/04/11 06:46:48;;;;;;;18.35;6.28;;;;;;;;;;5074408;28;20366;-78
2022/04/11 06:49:52;;;;;;;14.27;5.90;;;;;;;;;;5073947;28;20053;-72
2022/04/11 06:52:56;;;;;;;18.92;5.90;;;;;;;;;;5073899;28;20036;-72
2022/04/11 06:56:01;;;;;;;19.65;4.93;;;;;;;;;;5073484;28;20048;-77
2022/04/11 06:59:06;;;;;;;8.48;5.40;;;;;;;;;;5073080;28;20102;-74
2022/04/11 07:02:10;;;;;;;24.75;5.25;;;;;;;;;;5074103;28;20045;-77
2022/04/11 07:05:14;;;;;;;19.42;6.32;;;;;;;;;;5074251;28;20040;-76
2022/04/11 07:08:19;;;;;;;11.68;4.93;;;;;;;;;;5074914;28;20125;-75
2022/04/11 07:11:23;;;;;;;17.50;5.70;;;;;;;;;;5075028;28;20389;-81
2022/04/11 07:14:27;;;;;;;11.75;5.93;;;;;;;;;;5072829;28;20040;-73
2022/04/11 07:17:32;;;;;;;16.08;5.38;;;;;;;;;;5074003;28;20519;-78
2022/04/11 07:20:38;;;;;;;17.67;6.28;;;;;;;;;;5075609;28;20040;-78
2022/04/11 07:23:42;;;;;;;13.85;4.20;;;;;;;;;;5063165;28;20061;-77
2022/04/11 07:26:46;;;;;;;10.52;2.97;;;;;;;;;;5075878;28;20376;-80
2022/04/11 07:29:51;;;;;;;14.05;3.33;;;;;;;;;;5074827;28;20036;-78
2022/04/11 07:32:55;;;;;;;6.28;2.55;;;;;;;;;;5073989;28;20048;-73
2022/04/11 07:36:00;;;;;;;7.82;2.17;;;;;;;;;;5073860;28;20037;-75
2022/04/11 07:39:04;;;;;;;5.53;2.30;;;;;;;;;;5072277;28;20041;-74
2022/04/11 07:42:08;;;;;;;2.17;1.60;;;;;;;;;;5074101;28;20492;-72
2022/04/11 07:45:14;;;;;;;5.97;1.70;;;;;;;;;;5072161;28;20044;-70
2022/04/11 07:48:19;;;;;;;4.28;1.30;;;;;;;;;;5072457;28;20044;-73
2022/04/11 07:51:23;;;;;;;9.15;1.55;;;;;;;;;;5072262;28;20044;-72
2022/04/11 07:54:27;;;;;;;2.50;1.40;;;;;;;;;;5073061;28;20044;-72
2022/04/11 07:57:32;;;;;;;3.72;1.30;;;;;;;;;;5060178;28;20040;-72
2022/04/11 08:00:36;;;;;;;3.72;1.00;;;;;;;;;;5072482;28;20040;-72
2022/04/11 08:03:40;;;;;;;2.25;1.10;;;;;;;;;;5072353;28;20401;-72
2022/04/11 08:06:44;;;;;;;2.50;1.58;;;;;;;;;;5070869;28;20049;-71
2022/04/11 08:09:49;;;;;;;3.65;1.83;;;;;;;;;;5070973;28;20052;-71
2022/04/11 08:12:54;;;;;;;5.05;1.75;;;;;;;;;;5072072;28;20040;-72
2022/04/11 08:15:58;;;;;;;4.13;1.50;;;;;;;;;;5072312;28;20484;-72
2022/04/11 08:19:03;;;;;;;6.25;1.70;;;;;;;;;;5071890;28;20369;-72
2022/04/11 08:22:07;;;;;;;3.45;1.60;;;;;;;;;;5072173;28;20041;-72
2022/04/11 08:25:11;;;;;;;3.47;1.60;;;;;;;;;;5071201;28;20053;-71
2022/04/11 08:28:16;;;;;;;5.45;1.20;;;;;;;;;;5071317;28;20373;-72
2022/04/11 08:31:20;;;;;;;2.47;1.20;;;;;;;;;;5071978;28;20048;-71
2022/04/11 08:34:25;;;;;;;2.10;1.00;;;;;;;;;;5071907;28;20036;-72
2022/04/11 08:37:29;;;;;;;1.55;0.85;;;;;;;;;;5071673;28;20044;-72
2022/04/11 08:40:34;;;;;;;2.72;1.52;;;;;;;;;;5071983;28;20032;-72
2022/04/11 08:43:38;;;;;;;5.88;1.52;;;;;;;;;;5071305;28;20041;-74
2022/04/11 08:46:42;;;;;;;3.08;1.30;;;;;;;;;;5071142;28;20045;-73
2022/04/11 08:49:47;;;;;;;3.30;1.60;;;;;;;;;;5071530;28;20032;-71
2022/04/11 08:52:52;;;;;;;4.25;1.80;;;;;;;;;;5072542;28;20512;-82
2022/04/11 08:55:56;;;;;;;6.88;1.27;;;;;;;;;;5074153;28;20354;-78
2022/04/11 08:59:02;;;;;;;4.53;1.20;;;;;;;;;;5071622;28;20490;-75
2022/04/11 09:02:10;;;;;;;2.60;1.52;;;;;;;;;;5072214;28;20036;-74
2022/04/11 09:05:21;;;;;;;3.17;1.38;;;;;;;;;;5071260;28;20044;-71
2022/04/11 09:08:36;;;;;;;3.55;1.00;;;;;;;;;;5071453;28;20279;-72
2022/04/11 09:11:41;;;;;;;1.95;1.00;;;;;;;;;;5070483;28;20044;-71
2022/04/11 09:14:57;;;;;;;2.92;1.33;;;;;;;;;;5071339;28;20032;-71
2022/04/11 09:18:01;;;;;;;3.33;1.17;;;;;;;;;;5071813;28;20032;-73
2022/04/11 09:21:05;;;;;;;3.72;1.30;;;;;;;;;;5059138;28;20191;-73
2022/04/11 09:24:14;;;;;;;3.33;1.05;;;;;;;;;;5071684;28;20049;-75
2022/04/11 09:27:24;;;;;;;2.15;1.13;;;;;;;;;;5071776;28;20032;-72
2022/04/11 09:30:32;;;;;;;3.22;1.17;;;;;;;;;;5073115;28;20028;-71
2022/04/11 09:33:40;;;;;;;4.30;1.10;;;;;;;;;;5070319;28;20156;-74
2022/04/11 09:36:45;;;;;;;2.40;1.30;;;;;;;;;;5072850;28;20044;-74
2022/04/11 09:39:56;;;;;;;2.17;1.40;;;;;;;;;;5075653;28;20473;-76
2022/04/11 09:43:00;;;;;;;2.15;1.27;;;;;;;;;;5075383;28;20063;-76
2022/04/11 09:46:04;;;;;;;4.95;1.42;;;;;;;;;;5075311;28;20040;-75
2022/04/11 09:49:09;;;;;;;2.47;1.23;;;;;;;;;;5074078;28;20041;-75
2022/04/11 09:52:15;;;;;;;6.60;1.48;;;;;;;;;;5074728;28;20033;-74
2022/04/11 09:55:19;;;;;;;3.25;1.40;;;;;;;;;;5077555;28;20044;-77
2022/04/11 09:58:24;;;;;;;2.53;1.13;;;;;;;;;;5074974;28;20200;-74
2022/04/11 10:01:31;;;;;;;4.30;1.40;;;;;;;;;;5075262;28;20049;-75
2022/04/11 10:04:38;;;;;;;2.08;1.38;;;;;;;;;;5074244;28;20048;-76
2022/04/11 10:07:42;;;;;;;3.60;1.40;;;;;;;;;;5075359;28;20037;-78
2022/04/11 10:10:47;;;;;;;3.58;1.30;;;;;;;;;;5075345;28;20041;-73
2022/04/11 10:13:52;;;;;;;3.35;1.88;;;;;;;;;;5075137;28;20045;-74
2022/04/11 10:17:01;;;;;;;2.67;1.42;;;;;;;;;;5075593;28;20036;-75
2022/04/11 10:20:05;;;;;;;3.65;1.40;;;;;;;;;;5078309;28;20036;-76
2022/04/11 10:23:28;;;;;;;2.83;1.20;;;;;;;;;;5077073;28;20389;-74
2022/04/11 10:26:47;;;;;;;2.67;1.02;;;;;;;;;;5075570;28;20041;-81
2022/04/11 10:29:55;;;;;;;2.30;1.25;;;;;;;;;;5075451;28;20472;-76
2022/04/11 10:32:59;;;;;;;3.65;1.17;;;;;;;;;;5075704;28;20032;-77
2022/04/11 10:36:04;;;;;;;3.38;1.20;;;;;;;;;;5074868;28;20041;-77
2022/04/11 10:39:14;;;;;;;2.83;1.20;;;;;;;;;;5074639;28;20425;-77
2022/04/11 10:42:28;;;;;;;2.83;1.15;;;;;;;;;;5080412;28;20040;-79
2022/04/11 10:45:31;;;;;;;3.28;1.10;;;;;;;;;;5079214;28;20045;-82
2022/04/11 10:48:57;;;;;;;4.47;1.20;;;;;;;;;;5074482;28;20378;-77
2022/04/11 10:52:20;;;;;;;3.58;1.40;;;;;;;;;;5077628;28;20040;-76
2022/04/11 10:55:25;;;;;;;6.28;2.17;;;;;;;;;;5074498;28;20048;-76
2022/04/11 10:58:59;;;;;;;2.88;1.50;;;;;;;;;;5074164;28;20049;-77
2022/04/11 11:02:05;;;;;;;3.50;1.63;;;;;;;;;;5073280;28;20032;-76
2022/04/11 11:05:28;;;;;;;4.40;1.70;;;;;;;;;;5073602;28;20056;-78
2022/04/11 11:08:33;;;;;;;2.08;1.40;;;;;;;;;;5074778;28;20045;-79
2022/04/11 11:11:37;;;;;;;3.95;1.67;;;;;;;;;;5075915;28;20037;-77
2022/04/11 11:14:42;;;;;;;2.95;1.60;;;;;;;;;;5074087;28;20365;-76
2022/04/11 11:17:59;;;;;;;6.85;1.95;;;;;;;;;;5074308;28;20044;-77
2022/04/11 11:21:03;;;;;;;4.90;1.60;;;;;;;;;;5076092;28;20180;-78
2022/04/11 11:24:12;;;;;;;3.33;1.88;;;;;;;;;;5075770;28;20036;-80
2022/04/11 11:27:18;;;;;;;2.97;1.60;;;;;;;;;;5073560;28;20052;-77
2022/04/11 11:30:23;;;;;;;4.55;1.63;;;;;;;;;;5075803;28;20028;-75
2022/04/11 11:33:27;;;;;;;8.77;1.58;;;;;;;;;;5073419;28;20040;-73
2022/04/11 11:36:32;;;;;;;4.00;1.80;;;;;;;;;;5074911;28;20036;-76
2022/04/11 11:39:39;;;;;;;3.22;1.70;;;;;;;;;;5078214;28;20037;-75
2022/04/11 11:42:43;;;;;;;4.78;1.95;;;;;;;;;;5074748;28;20040;-75
2022/04/11 11:45:49;;;;;;;5.78;2.10;;;;;;;;;;5076223;28;20048;-78
2022/04/11 11:48:55;;;;;;;5.35;2.40;;;;;;;;;;5073930;28;20484;-75
2022/04/11 11:52:00;;;;;;;5.13;1.80;;;;;;;;;;5073764;28;20040;-83
2022/04/11 11:55:05;;;;;;;5.22;1.88;;;;;;;;;;5075299;28;20056;-79
2022/04/11 11:58:10;;;;;;;4.82;1.77;;;;;;;;;;5074833;28;20397;-77
2022/04/11 12:01:14;;;;;;;5.07;1.88;;;;;;;;;;5074307;28;20032;-75
2022/04/11 12:04:19;;;;;;;4.75;1.90;;;;;;;;;;5073346;28;20045;-74
2022/04/11 12:07:23;;;;;;;7.20;2.28;;;;;;;;;;5073250;28;20056;-76
2022/04/11 12:10:27;;;;;;;5.53;2.00;;;;;;;;;;5073972;28;20037;-74
2022/04/11 12:13:32;;;;;;;2.20;1.48;;;;;;;;;;5072962;28;20032;-73
2022/04/11 12:16:39;;;;;;;5.32;2.03;;;;;;;;;;5071972;28;20049;-73
2022/04/11 12:19:43;;;;;;;5.10;2.35;;;;;;;;;;5072594;28;20151;-72
2022/04/11 12:23:07;;;;;;;2.03;1.42;;;;;;;;;;5071957;28;20032;-71
2022/04/11 12:26:11;;;;;;;2.88;1.50;;;;;;;;;;5072478;28;20044;-74
2022/04/11 12:29:17;;;;;;;3.72;1.80;;;;;;;;;;5072359;28;20029;-76
2022/04/11 12:32:22;;;;;;;5.85;1.70;;;;;;;;;;5073916;28;20040;-83
2022/04/11 12:35:26;;;;;;;9.00;2.45;;;;;;;;;;5074200;28;20036;-79
2022/04/11 12:38:41;;;;;;;5.90;2.10;;;;;;;;;;5072265;28;20040;-78
2022/04/11 12:41:49;;;;;;;7.22;3.20;;;;;;;;;;5060405;28;20033;-76
2022/04/11 12:45:07;;;;;;;2.40;1.67;;;;;;;;;;5073002;28;20052;-74
2022/04/11 12:48:11;;;;;;;3.50;1.40;;;;;;;;;;5071842;28;20494;-71
2022/04/11 12:51:16;;;;;;;2.83;1.50;;;;;;;;;;5072847;28;20036;-75
2022/04/11 12:54:21;;;;;;;4.35;1.50;;;;;;;;;;5072796;28;20040;-75
2022/04/11 12:57:32;;;;;;;7.28;1.63;;;;;;;;;;5072040;28;20048;-74
2022/04/11 13:00:39;;;;;;;4.15;1.30;;;;;;;;;;5071749;28;20037;-71
2022/04/11 13:03:43;;;;;;;4.45;1.45;;;;;;;;;;5058957;28;20033;-72
2022/04/11 13:06:52;;;;;;;6.47;1.70;;;;;;;;;;5070838;28;20048;-71
2022/04/11 13:09:56;;;;;;;4.45;1.63;;;;;;;;;;5071509;28;20041;-75
2022/04/11 13:13:01;;;;;;;5.82;1.50;;;;;;;;;;5071684;28;20385;-74
2022/04/11 13:19:28;;;;;;;6.13;1.52;;;;;;;;;;5072540;28;20037;-73
2022/04/11 13:22:33;;;;;;;5.22;1.60;;;;;;;;;;5070878;28;20037;-75
2022/04/11 13:25:37;;;;;;;5.43;1.70;;;;;;;;;;5061119;28;20049;-74
2022/04/11 13:28:41;;;;;;;5.45;1.40;;;;;;;;;;5071868;28;20040;-76
2022/04/11 13:31:47;;;;;;;6.57;1.70;;;;;;;;;;5071443;28;20044;-77
2022/04/11 13:34:52;;;;;;;7.03;1.98;;;;;;;;;;5071678;28;20183;-77
2022/04/11 13:37:56;;;;;;;8.40;5.50;;;;;;;;;;5071011;28;20041;-77
2022/04/11 13:41:01;;;;;;;4.10;1.30;;;;;;;;;;5071471;28;20036;-72
2022/04/11 13:44:05;;;;;;;9.38;2.22;;;;;;;;;;5071432;28;20036;-75
2022/04/11 13:47:12;;;;;;;1.58;1.17;;;;;;;;;;5071546;28;20049;-73
2022/04/11 13:50:17;;;;;;;4.07;1.50;;;;;;;;;;5071872;28;20037;-72
2022/04/11 13:53:21;;;;;;;4.72;1.30;;;;;;;;;;5074101;28;20037;-77
2022/04/11 13:56:25;;;;;;;11.85;1.95;;;;;;;;;;5070991;28;20041;-72
2022/04/11 13:59:30;;;;;;;5.85;1.83;;;;;;;;;;5073957;28;20532;-72
2022/04/11 14:02:35;;;;;;;6.65;2.10;;;;;;;;;;5071621;28;20108;-74
2022/04/11 14:05:40;;;;;;;8.18;1.98;;;;;;;;;;5071089;28;20053;-74
2022/04/11 14:08:44;;;;;;;8.32;2.30;;;;;;;;;;5072629;28;20044;-73
2022/04/11 14:11:48;;;;;;;4.45;2.00;;;;;;;;;;5073893;28;20298;-79
2022/04/11 14:14:53;;;;;;;8.90;1.58;;;;;;;;;;5073505;28;20032;-74
2022/04/11 14:17:59;;;;;;;3.65;2.08;;;;;;;;;;5072284;28;20066;-75
2022/04/11 14:21:04;;;;;;;7.07;2.10;;;;;;;;;;5073246;28;20386;-75
2022/04/11 14:24:08;;;;;;;3.40;1.88;;;;;;;;;;5077635;28;20041;-74
2022/04/11 14:27:12;;;;;;;11.27;1.95;;;;;;;;;;5076281;28;20040;-73
2022/04/11 14:30:17;;;;;;;4.43;1.95;;;;;;;;;;5075525;28;20389;-73
2022/04/11 14:33:21;;;;;;;5.15;2.00;;;;;;;;;;5073732;28;20045;-76
2022/04/11 14:36:25;;;;;;;3.60;1.92;;;;;;;;;;5075426;28;20373;-75
2022/04/11 14:39:33;;;;;;;3.47;1.52;;;;;;;;;;5075931;28;20044;-80
2022/04/11 14:42:37;;;;;;;8.43;2.00;;;;;;;;;;5074108;28;20036;-78
2022/04/11 14:45:43;;;;;;;4.18;1.73;;;;;;;;;;5075047;28;20044;-76
2022/04/11 14:48:48;;;;;;;9.00;2.15;;;;;;;;;;5074754;28;20032;-77
2022/04/11 14:51:52;;;;;;;4.20;2.35;;;;;;;;;;5075314;28;20040;-74
2022/04/11 14:54:57;;;;;;;5.32;2.25;;;;;;;;;;5074365;28;20033;-74
2022/04/11 14:58:01;;;;;;;7.90;2.78;;;;;;;;;;5073984;28;20036;-72
2022/04/11 15:01:07;;;;;;;6.03;2.15;;;;;;;;;;5074158;28;20477;-74
2022/04/11 15:04:12;;;;;;;7.00;2.00;;;;;;;;;;5074345;28;20503;-74
2022/04/11 15:07:16;;;;;;;4.53;1.95;;;;;;;;;;5073632;28;20048;-76
2022/04/11 15:10:21;;;;;;;9.88;1.98;;;;;;;;;;5065765;28;20033;-75
2022/04/11 15:13:25;;;;;;;4.35;2.13;;;;;;;;;;5076341;28;20389;-75
2022/04/11 15:16:29;;;;;;;12.00;2.10;;;;;;;;;;5073520;28;20045;-72
2022/04/11 15:19:37;;;;;;;9.88;3.03;;;;;;;;;;5074809;28;20036;-72
2022/04/11 15:22:41;;;;;;;6.63;2.33;;;;;;;;;;5075021;28;20041;-77
2022/04/11 15:25:50;;;;;;;7.82;2.58;;;;;;;;;;5074638;28;20044;-75
2022/04/11 15:28:54;;;;;;;4.47;2.47;;;;;;;;;;5073670;28;20028;-76
2022/04/11 15:32:02;;;;;;;7.22;2.70;;;;;;;;;;5072620;28;20036;-76
2022/04/11 15:35:06;;;;;;;10.93;3.40;;;;;;;;;;5072677;28;20032;-74
2022/04/11 15:38:10;;;;;;;5.43;2.60;;;;;;;;;;5073484;28;20056;-74
2022/04/11 15:41:14;;;;;;;11.75;2.42;;;;;;;;;;5073484;28;20032;-73
2022/04/11 15:44:19;;;;;;;10.20;2.58;;;;;;;;;;5074872;28;20235;-74
2022/04/11 15:47:27;;;;;;;9.80;2.30;;;;;;;;;;5072248;28;20044;-76
2022/04/11 15:50:31;;;;;;;11.15;2.33;;;;;;;;;;5072750;28;20037;-74
2022/04/11 15:53:36;;;;;;;9.60;3.58;;;;;;;;;;5072863;28;20122;-75
2022/04/11 15:56:41;;;;;;;4.97;2.30;;;;;;;;;;5072483;28;20041;-76
2022/04/11 15:59:45;;;;;;;6.85;2.38;;;;;;;;;;5074795;28;20369;-75
2022/04/11 16:02:50;;;;;;;3.50;2.28;;;;;;;;;;5063654;28;20033;-73
2022/04/11 16:05:58;;;;;;;5.80;2.10;;;;;;;;;;5072836;28;20044;-76
2022/04/11 16:09:03;;;;;;;11.07;2.63;;;;;;;;;;5072631;28;20381;-72
2022/04/11 16:12:09;;;;;;;5.22;2.60;;;;;;;;;;5073089;28;20048;-77
2022/04/11 16:15:14;;;;;;;7.70;2.20;;;;;;;;;;5073202;28;20036;-74
2022/04/11 16:18:19;;;;;;;11.50;5.55;;;;;;;;;;5073173;28;20045;-73
2022/04/11 16:21:23;;;;;;;8.68;3.60;;;;;;;;;;5072883;28;20040;-78
2022/04/11 16:24:27;;;;;;;6.57;2.60;;;;;;;;;;5071763;28;20040;-72
2022/04/11 16:27:32;;;;;;;7.70;2.35;;;;;;;;;;5071879;28;20048;-75
2022/04/11 16:30:37;;;;;;;12.05;2.95;;;;;;;;;;5072650;28;20044;-74
2022/04/11 16:33:41;;;;;;;8.02;2.25;;;;;;;;;;5071498;28;20047;-74
2022/04/11 16:36:46;;;;;;;5.22;1.75;;;;;;;;;;5074084;28;20045;-78
2022/04/11 16:39:50;;;;;;;10.15;2.03;;;;;;;;;;5073710;28;20377;-83
2022/04/11 16:42:54;;;;;;;9.52;1.77;;;;;;;;;;5073042;28;20028;-79
2022/04/11 16:46:00;;;;;;;6.18;1.92;;;;;;;;;;5071753;28;20045;-76
2022/04/11 16:49:05;;;;;;;6.07;1.90;;;;;;;;;;5075854;28;20040;-77
2022/04/11 16:52:09;;;;;;;8.75;1.83;;;;;;;;;;5073328;28;20044;-83
2022/04/11 16:55:13;;;;;;;7.03;1.67;;;;;;;;;;5072769;28;20476;-78
2022/04/11 16:58:18;;;;;;;6.95;2.50;;;;;;;;;;5073622;28;20401;-74
2022/04/11 17:01:22;;;;;;;5.18;2.00;;;;;;;;;;5071977;28;20036;-72
2022/04/11 17:04:27;;;;;;;9.02;1.40;;;;;;;;;;5073223;28;20044;-77
2022/04/11 17:07:31;;;;;;;3.97;1.80;;;;;;;;;;5071598;28;20056;-74
2022/04/11 17:10:39;;;;;;;6.88;1.95;;;;;;;;;;5072896;28;20037;-71
2022/04/11 17:13:43;;;;;;;5.18;2.13;;;;;;;;;;5075281;28;20044;-82
2022/04/11 17:20:11;;;;;;;9.10;1.80;;;;;;;;;;5074158;28;20048;-79
2022/04/11 17:23:15;;;;;;;5.65;1.90;;;;;;;;;;5077395;28;20036;-81
2022/04/11 17:26:19;;;;;;;5.35;1.70;;;;;;;;;;5077757;28;20052;-81
2022/04/11 17:29:25;;;;;;;10.48;1.70;;;;;;;;;;5075595;28;20037;-80
2022/04/11 17:32:30;;;;;;;7.35;2.13;;;;;;;;;;5073794;28;20053;-80
2022/04/11 17:35:34;;;;;;;2.63;1.52;;;;;;;;;;5073315;28;20032;-77
2022/04/11 17:38:39;;;;;;;7.97;1.88;;;;;;;;;;5073818;28;20381;-76
2022/04/11 17:41:44;;;;;;;10.95;2.10;;;;;;;;;;5073781;28;20040;-75
2022/04/11 17:44:49;;;;;;;12.15;2.58;;;;;;;;;;5073311;28;20055;-76
2022/04/11 17:47:53;;;;;;;8.85;3.08;;;;;;;;;;5072993;28;20039;-76
2022/04/11 17:50:59;;;;;;;11.40;2.30;;;;;;;;;;5073020;28;20473;-78
2022/04/11 17:54:03;;;;;;;5.85;1.90;;;;;;;;;;5073002;28;20044;-77
2022/04/11 17:57:08;;;;;;;20.02;2.63;;;;;;;;;;5071822;28;20040;-76
2022/04/11 18:00:14;;;;;;;5.00;2.40;;;;;;;;;;5075547;28;20495;-77
2022/04/11 18:03:18;;;;;;;14.40;3.65;;;;;;;;;;5074694;28;20036;-76
2022/04/11 18:06:23;;;;;;;9.55;3.55;;;;;;;;;;5074050;28;20464;-77
2022/04/11 18:09:27;;;;;;;7.53;2.63;;;;;;;;;;5074559;28;20040;-76
2022/04/11 18:12:32;;;;;;;6.35;3.55;;;;;;;;;;5075238;28;20036;-76
2022/04/11 18:15:37;;;;;;;12.48;3.70;;;;;;;;;;5074387;28;20250;-76
2022/04/11 18:18:42;;;;;;;9.93;3.63;;;;;;;;;;5073491;28;20063;-75
2022/04/11 18:21:46;;;;;;;7.85;3.50;;;;;;;;;;5074849;28;20369;-77
2022/04/11 18:24:50;;;;;;;11.23;4.45;;;;;;;;;;5074193;28;20048;-76
2022/04/11 18:27:55;;;;;;;10.65;4.50;;;;;;;;;;5075495;28;20032;-78
2022/04/11 18:34:22;;;;;;;15.27;7.25;;;;;;;;;;5074718;28;20040;-72
2022/04/11 18:37:27;;;;;;;16.33;7.60;;;;;;;;;;5074461;28;20059;-72
2022/04/11 18:40:31;;;;;;;11.40;5.53;;;;;;;;;;5074985;28;20041;-72